createdAt,value
2019-01-12T00:00:58.197Z,98948.87
2019-01-12T00:03:27.945Z,98957.49
2019-01-12T00:05:57.404Z,98961.09
2019-01-12T00:08:27.328Z,98977.64
2019-01-12T00:10:58.521Z,98959.45
2019-01-12T00:13:28.079Z,98963.82
2019-01-12T00:15:57.501Z,98961.47
2019-01-12T00:18:27.022Z,98960.47
2019-01-12T00:20:56.817Z,98955.63
2019-01-12T00:23:26.376Z,98959.25
2019-01-12T00:25:55.794Z,98962.60
2019-01-12T00:28:25.426Z,98962.69
2019-01-12T00:30:55.077Z,98970.77
2019-01-12T00:33:24.438Z,98967.41
2019-01-12T00:35:53.850Z,98971.77
2019-01-12T00:38:23.236Z,98982.63
2019-01-12T00:40:53.314Z,98989.09
2019-01-12T00:43:22.823Z,98988.23
2019-01-12T00:45:52.967Z,98983.88
2019-01-12T00:48:22.492Z,98991.45
2019-01-12T00:50:52.024Z,98993.19
2019-01-12T00:53:21.599Z,98996.87
2019-01-12T00:55:51.254Z,98988.99
2019-01-12T00:58:20.785Z,98993.52
2019-01-12T01:00:50.400Z,99012.80
2019-01-12T01:03:19.750Z,99001.55
2019-01-12T01:05:49.148Z,98999.95
2019-01-12T01:08:18.639Z,99000.68
2019-01-12T01:10:48.043Z,99006.22
2019-01-12T01:13:17.546Z,99003.90
2019-01-12T01:15:47.771Z,99006.84
2019-01-12T01:18:17.326Z,99004.52
2019-01-12T01:20:46.733Z,99014.89
2019-01-12T01:23:16.207Z,99007.72
2019-01-12T01:25:45.675Z,99008.83
2019-01-12T01:28:15.146Z,99009.13
2019-01-12T01:30:44.995Z,99009.78
2019-01-12T01:33:14.386Z,99004.55
2019-01-12T01:35:43.784Z,99012.15
2019-01-12T01:38:13.341Z,99024.25
2019-01-12T01:40:42.781Z,99018.30
2019-01-12T01:43:12.139Z,99002.45
2019-01-12T01:45:41.574Z,99006.27
2019-01-12T01:48:11.011Z,99007.76
2019-01-12T01:50:40.434Z,99003.64
2019-01-12T01:53:09.829Z,99007.72
2019-01-12T01:55:39.442Z,99009.93
2019-01-12T01:58:08.818Z,99005.81
2019-01-12T02:00:38.267Z,99007.75
2019-01-12T02:03:07.825Z,99014.31
2019-01-12T02:05:37.264Z,99018.73
2019-01-12T02:08:06.756Z,99009.28
2019-01-12T02:10:36.113Z,99007.86
2019-01-12T02:13:05.492Z,99008.62
2019-01-12T02:15:34.942Z,98999.31
2019-01-12T02:18:04.695Z,99001.78
2019-01-12T02:20:34.184Z,99004.45
2019-01-12T02:23:03.623Z,98999.44
2019-01-12T02:25:33.089Z,98992.66
2019-01-12T02:28:02.465Z,98997.26
2019-01-12T02:30:32.046Z,98995.05
2019-01-12T02:33:02.049Z,98989.78
2019-01-12T02:35:31.419Z,98980.78
2019-01-12T02:38:01.110Z,98985.41
2019-01-12T02:40:30.493Z,98846.50
2019-01-12T02:43:00.360Z,98986.63
2019-01-12T02:45:29.728Z,98985.05
2019-01-12T02:47:59.168Z,98985.66
2019-01-12T02:50:28.645Z,98986.95
2019-01-12T02:52:58.050Z,98980.63
2019-01-12T02:55:27.840Z,98989.05
2019-01-12T02:57:57.369Z,98993.24
2019-01-12T03:00:26.831Z,98978.29
2019-01-12T03:02:56.260Z,98984.39
2019-01-12T03:05:25.833Z,98971.73
2019-01-12T03:07:55.215Z,98962.96
2019-01-12T03:10:24.677Z,98964.21
2019-01-12T03:12:54.314Z,98967.48
2019-01-12T03:15:23.899Z,98963.37
2019-01-12T03:17:53.337Z,98973.81
2019-01-12T03:20:22.751Z,98974.22
2019-01-12T03:22:52.564Z,98966.31
2019-01-12T03:25:22.026Z,98981.55
2019-01-12T03:27:51.542Z,98970.03
2019-01-12T03:30:21.101Z,98968.41
2019-01-12T03:32:51.258Z,98968.61
2019-01-12T03:35:20.934Z,98970.09
2019-01-12T03:37:50.443Z,98971.13
2019-01-12T03:40:21.356Z,98976.39
2019-01-12T03:42:50.922Z,98974.03
2019-01-12T03:45:20.965Z,98967.91
2019-01-12T03:47:51.198Z,98977.68
2019-01-12T03:50:20.659Z,98975.48
2019-01-12T03:52:50.237Z,98976.70
2019-01-12T03:55:25.439Z,98973.34
2019-01-12T03:57:51.012Z,98839.66
2019-01-12T04:00:24.970Z,98983.84
2019-01-12T04:02:54.340Z,98982.20
2019-01-12T04:05:23.777Z,98982.03
2019-01-12T04:07:53.230Z,98984.09
2019-01-12T04:10:22.617Z,98979.89
2019-01-12T04:12:52.053Z,98975.27
2019-01-12T04:15:21.530Z,98975.73
2019-01-12T04:17:50.899Z,98979.09
2019-01-12T04:20:20.466Z,98973.01
2019-01-12T04:22:49.960Z,98981.83
2019-01-12T04:25:19.406Z,98983.45
2019-01-12T04:27:48.780Z,98982.16
2019-01-12T04:30:19.310Z,98976.34
2019-01-12T04:32:49.006Z,98981.45
2019-01-12T04:35:18.493Z,98982.33
2019-01-12T04:37:47.891Z,98981.31
2019-01-12T04:40:21.043Z,98977.88
2019-01-12T04:42:50.628Z,98980.64
2019-01-12T04:45:20.571Z,98986.42
2019-01-12T04:47:49.975Z,98986.42
2019-01-12T04:50:19.350Z,98983.61
2019-01-12T04:52:48.771Z,98983.61
2019-01-12T04:55:18.295Z,98979.34
2019-01-12T04:57:47.772Z,98981.02
2019-01-12T05:00:18.745Z,98981.02
2019-01-12T05:02:48.265Z,98982.09
2019-01-12T05:05:17.930Z,98982.38
2019-01-12T05:07:47.635Z,98994.19
2019-01-12T05:10:17.138Z,98997.68
2019-01-12T05:12:46.500Z,98995.72
2019-01-12T05:15:16.744Z,98997.59
2019-01-12T05:17:46.169Z,98995.46
2019-01-12T05:20:20.540Z,98992.66
2019-01-12T05:22:50.023Z,98984.87
2019-01-12T05:25:19.482Z,98989.14
2019-01-12T05:27:48.933Z,98992.83
2019-01-12T05:30:20.622Z,98992.83
2019-01-12T05:32:52.392Z,99011.10
2019-01-12T05:35:21.783Z,99007.45
2019-01-12T05:37:51.304Z,99009.42
2019-01-12T05:40:21.092Z,99009.42
2019-01-12T05:42:50.630Z,99011.23
2019-01-12T05:45:20.126Z,99004.92
2019-01-12T05:47:49.612Z,99004.92
2019-01-12T05:50:19.139Z,99014.47
2019-01-12T05:52:48.611Z,99014.47
2019-01-12T05:55:19.708Z,99014.62
2019-01-12T05:57:49.094Z,99022.97
2019-01-12T06:00:20.660Z,99025.78
2019-01-12T06:02:50.208Z,99047.27
2019-01-12T06:05:19.637Z,99037.17
2019-01-12T06:07:49.101Z,99034.91
2019-01-12T06:10:18.606Z,99037.42
2019-01-12T06:12:48.097Z,99036.27
2019-01-12T06:15:17.588Z,99039.14
2019-01-12T06:17:47.072Z,98967.19
2019-01-12T06:20:17.199Z,99039.59
2019-01-12T06:22:46.575Z,99039.59
2019-01-12T06:25:16.053Z,99047.35
2019-01-12T06:27:45.680Z,99043.77
2019-01-12T06:30:17.617Z,99047.19
2019-01-12T06:32:47.173Z,99056.70
2019-01-12T06:35:16.857Z,99054.11
2019-01-12T06:37:46.394Z,99056.02
2019-01-12T06:40:17.974Z,99051.48
2019-01-12T06:42:47.510Z,99053.68
2019-01-12T06:45:17.500Z,99054.22
2019-01-12T06:47:46.955Z,99052.55
2019-01-12T06:50:17.990Z,99057.33
2019-01-12T06:52:47.530Z,99049.97
2019-01-12T06:55:16.974Z,99051.48
2019-01-12T06:57:46.416Z,99052.72
2019-01-12T07:00:18.251Z,99058.45
2019-01-12T07:02:47.947Z,99063.07
2019-01-12T07:05:17.431Z,99066.66
2019-01-12T07:07:46.826Z,99066.66
2019-01-12T07:10:16.486Z,99066.20
2019-01-12T07:12:45.914Z,98967.38
2019-01-12T07:15:15.794Z,98967.38
2019-01-12T07:17:45.237Z,99068.70
2019-01-12T07:20:18.336Z,99073.80
2019-01-12T07:22:47.777Z,99081.78
2019-01-12T07:25:17.250Z,99078.17
2019-01-12T07:27:46.654Z,99073.63
2019-01-12T07:30:24.390Z,99069.75
2019-01-12T07:32:54.090Z,99076.55
2019-01-12T07:35:23.468Z,99077.23
2019-01-12T07:37:53.222Z,99078.41
2019-01-12T07:40:22.973Z,99085.16
2019-01-12T07:42:52.466Z,99092.28
2019-01-12T07:45:21.979Z,99092.28
2019-01-12T07:47:51.428Z,99098.36
2019-01-12T07:50:20.951Z,99084.14
2019-01-12T07:52:50.508Z,99091.72
2019-01-12T07:55:20.087Z,99087.91
2019-01-12T07:57:49.558Z,99088.30
2019-01-12T08:00:21.420Z,99087.30
2019-01-12T08:02:50.922Z,99093.31
2019-01-12T08:05:21.357Z,99089.88
2019-01-12T08:07:51.787Z,99095.32
2019-01-12T08:10:27.451Z,99096.61
2019-01-12T08:12:56.991Z,99096.68
2019-01-12T08:15:26.717Z,99091.56
2019-01-12T08:18:35.652Z,99091.56
2019-01-12T08:21:16.788Z,99087.06
2019-01-12T08:23:46.709Z,99087.06
2019-01-12T08:29:25.516Z,99098.70
2019-01-12T08:31:55.031Z,99094.88
2019-01-12T08:34:24.476Z,99099.03
2019-01-12T08:37:33.441Z,99095.60
2019-01-12T08:40:14.133Z,99100.23
2019-01-12T08:48:34.677Z,99110.39
2019-01-12T08:54:32.472Z,99105.05
2019-01-12T08:57:21.206Z,99108.53
2019-01-12T09:03:08.074Z,99117.20
2019-01-12T09:05:37.514Z,99115.22
2019-01-12T09:08:06.870Z,99115.22
2019-01-12T09:10:36.302Z,99121.23
2019-01-12T09:13:05.924Z,99121.88
2019-01-12T09:15:35.334Z,99119.84
2019-01-12T09:18:04.733Z,99119.00
2019-01-12T09:20:34.242Z,99113.02
2019-01-12T09:23:04.077Z,99130.07
2019-01-12T09:25:33.630Z,99125.80
2019-01-12T09:28:03.022Z,99120.11
2019-01-12T09:30:32.575Z,99122.88
2019-01-12T09:33:01.981Z,99122.88
2019-01-12T09:35:31.552Z,99117.37
2019-01-12T09:38:01.003Z,99117.76
2019-01-12T09:40:30.521Z,99117.02
2019-01-12T09:43:00.379Z,99116.50
2019-01-12T09:45:29.978Z,99112.11
2019-01-12T09:47:59.556Z,99114.93
2019-01-12T09:50:29.014Z,99114.93
2019-01-12T09:52:58.489Z,99116.94
2019-01-12T09:55:28.056Z,99109.34
2019-01-12T09:57:57.516Z,99111.92
2019-01-12T10:00:27.555Z,99111.92
2019-01-12T10:02:57.386Z,99114.84
2019-01-12T10:05:26.795Z,99103.48
2019-01-12T10:07:56.217Z,99113.03
2019-01-12T10:10:25.675Z,99105.12
2019-01-12T10:12:55.171Z,99103.84
2019-01-12T10:15:24.610Z,99103.84
2019-01-12T10:17:54.248Z,99108.01
2019-01-12T10:20:23.809Z,99110.59
2019-01-12T10:22:53.478Z,99108.27
2019-01-12T10:25:23.074Z,99114.28
2019-01-12T10:27:52.517Z,99112.83
2019-01-12T10:30:24.181Z,99117.20
2019-01-12T10:32:54.023Z,99110.63
2019-01-12T10:35:23.624Z,99110.63
2019-01-12T10:37:53.113Z,99113.47
2019-01-12T10:40:22.813Z,99113.86
2019-01-12T10:42:52.390Z,99106.44
2019-01-12T10:45:25.680Z,99119.58
2019-01-12T10:47:55.818Z,99120.55
2019-01-12T10:50:30.542Z,99123.53
2019-01-12T10:53:39.334Z,99118.03
2019-01-12T10:59:24.223Z,99120.42
2019-01-12T11:01:53.623Z,99114.34
2019-01-12T11:04:23.027Z,99109.61
2019-01-12T11:06:52.507Z,99109.61
2019-01-12T11:09:22.091Z,99103.03
2019-01-12T11:11:52.042Z,99110.22
2019-01-12T11:14:21.509Z,99109.90
2019-01-12T11:16:51.467Z,99111.88
2019-01-12T11:22:17.306Z,99103.25
2019-01-12T11:27:48.779Z,99076.72
2019-01-12T11:30:19.400Z,99081.77
2019-01-12T11:32:48.945Z,99083.19
2019-01-12T11:35:18.480Z,99098.66
2019-01-12T11:37:48.310Z,99082.97
2019-01-12T11:40:22.010Z,99082.97
2019-01-12T11:42:52.724Z,99087.76
2019-01-12T11:45:22.650Z,99091.77
2019-01-12T11:47:52.116Z,99091.83
2019-01-12T11:50:21.950Z,99089.80
2019-01-12T11:52:51.799Z,99074.36
2019-01-12T11:55:21.612Z,99074.36
2019-01-12T11:57:51.571Z,99089.60
2019-01-12T12:00:23.364Z,99094.78
2019-01-12T12:02:53.278Z,99094.09
2019-01-12T12:05:23.034Z,99088.92
2019-01-12T12:07:53.179Z,99085.49
2019-01-12T12:10:23.046Z,99091.34
2019-01-12T12:12:52.456Z,99090.11
2019-01-12T12:15:22.745Z,99082.55
2019-01-12T12:17:52.514Z,99084.32
2019-01-12T12:20:24.345Z,99074.95
2019-01-12T12:22:54.792Z,99084.28
2019-01-12T12:25:24.277Z,99080.08
2019-01-12T12:27:54.217Z,99090.42
2019-01-12T12:30:26.041Z,99084.76
2019-01-12T12:32:55.560Z,99087.86
2019-01-12T12:35:24.993Z,99085.10
2019-01-12T12:38:13.511Z,99089.71
2019-01-12T12:40:43.879Z,99089.71
2019-01-12T12:43:13.690Z,99083.98
2019-01-12T12:45:43.337Z,99091.95
2019-01-12T12:48:12.800Z,99087.41
2019-01-12T12:50:42.480Z,99088.80
2019-01-12T12:53:12.264Z,99091.89
2019-01-12T12:55:41.791Z,99089.48
2019-01-12T12:58:11.407Z,99087.17
2019-01-12T13:00:40.830Z,99082.09
2019-01-12T13:03:10.248Z,99087.27
2019-01-12T13:05:39.690Z,99075.20
2019-01-12T13:08:09.160Z,99075.20
2019-01-12T13:10:38.613Z,99082.62
2019-01-12T13:13:08.032Z,99084.04
2019-01-12T13:15:56.538Z,99084.44
2019-01-12T13:30:23.290Z,99083.41
2019-01-12T13:32:52.681Z,99077.58
2019-01-12T13:35:22.357Z,99084.56
2019-01-12T13:37:51.923Z,99092.48
2019-01-12T13:40:23.627Z,99090.95
2019-01-12T13:42:53.734Z,99092.41
2019-01-12T13:45:23.528Z,99096.09
2019-01-12T13:47:53.070Z,99100.47
2019-01-12T13:50:24.535Z,99099.33
2019-01-12T13:52:54.144Z,99091.24
2019-01-12T13:55:24.447Z,99091.78
2019-01-12T13:57:53.925Z,99094.42
2019-01-12T14:00:26.334Z,99096.61
2019-01-12T14:02:55.873Z,99086.84
2019-01-12T14:05:25.476Z,99083.41
2019-01-12T14:07:56.494Z,99086.44
2019-01-12T14:10:26.615Z,99076.20
2019-01-12T14:12:56.022Z,99085.30
2019-01-12T14:15:25.757Z,99078.00
2019-01-12T14:17:55.208Z,99086.19
2019-01-12T14:20:33.297Z,99087.73
2019-01-12T14:23:02.879Z,99084.03
2019-01-12T14:25:32.559Z,99084.22
2019-01-12T14:28:02.048Z,99085.70
2019-01-12T14:30:31.580Z,99084.27
2019-01-12T14:39:54.508Z,99079.13
2019-01-12T14:43:03.342Z,99042.91
2019-01-12T14:46:13.188Z,99084.18
2019-01-12T14:48:42.619Z,99088.58
2019-01-12T14:51:12.046Z,99087.34
2019-01-12T14:53:41.637Z,99082.38
2019-01-12T14:56:11.072Z,99083.77
2019-01-12T14:58:40.621Z,99088.66
2019-01-12T15:01:10.160Z,99089.40
2019-01-12T15:03:39.504Z,99090.44
2019-01-12T15:06:08.996Z,99089.40
2019-01-12T15:08:38.589Z,99095.71
2019-01-12T15:11:07.988Z,99093.66
2019-01-12T15:13:37.516Z,99093.71
2019-01-12T15:16:07.248Z,99095.10
2019-01-12T15:18:36.684Z,99091.23
2019-01-12T15:21:06.200Z,99089.63
2019-01-12T15:23:36.209Z,99087.20
2019-01-12T15:26:06.054Z,99090.46
2019-01-12T15:28:35.566Z,99093.77
2019-01-12T15:31:05.583Z,99090.52
2019-01-12T15:33:35.304Z,99086.80
2019-01-12T15:36:04.899Z,99086.48
2019-01-12T15:38:34.435Z,99087.42
2019-01-12T15:41:03.835Z,99077.79
2019-01-12T15:43:33.747Z,99075.96
2019-01-12T15:46:03.596Z,99077.47
2019-01-12T15:48:33.194Z,99076.67
2019-01-12T15:51:02.578Z,99081.03
2019-01-12T15:53:32.365Z,99078.02
2019-01-12T15:56:01.795Z,99070.41
2019-01-12T15:58:31.259Z,99069.71
2019-01-12T16:01:00.834Z,99065.41
2019-01-12T16:03:30.314Z,99065.75
2019-01-12T16:05:59.785Z,99061.66
2019-01-12T16:08:29.654Z,99061.66
2019-01-12T16:14:24.594Z,99058.47
2019-01-12T16:16:54.162Z,99061.72
2019-01-12T16:19:43.146Z,99065.67
2019-01-12T16:22:12.687Z,99072.52
2019-01-12T16:25:21.731Z,99077.66
2019-01-12T16:34:26.081Z,99079.75
2019-01-12T16:37:07.586Z,99079.75
2019-01-12T16:39:49.059Z,99078.46
2019-01-12T16:45:28.751Z,99066.88
2019-01-12T16:47:58.200Z,99066.88
2019-01-12T16:50:27.782Z,99059.81
2019-01-12T16:52:57.775Z,99059.81
2019-01-12T16:55:46.324Z,99051.25
2019-01-12T16:58:55.147Z,99051.25
2019-01-12T17:04:39.063Z,99046.95
2019-01-12T17:07:09.126Z,99046.95
2019-01-12T17:09:39.453Z,99047.30
2019-01-12T17:12:08.967Z,99043.88
2019-01-12T17:14:38.431Z,99043.97
2019-01-12T17:17:07.840Z,99038.91
2019-01-12T17:19:37.420Z,99038.91
2019-01-12T17:22:26.139Z,99038.16
2019-01-12T17:25:07.770Z,99041.56
2019-01-12T17:27:37.478Z,99041.56
2019-01-12T17:30:46.851Z,99037.22
2019-01-12T17:33:35.791Z,99034.69
2019-01-12T17:36:16.793Z,99037.66
2019-01-12T17:38:58.176Z,99039.39
2019-01-12T17:44:23.358Z,99043.03
2019-01-12T17:50:09.548Z,99039.00
2019-01-12T17:52:39.068Z,99027.05
2019-01-12T17:55:10.486Z,99027.05
2019-01-12T17:57:40.545Z,99026.66
2019-01-12T18:00:41.530Z,99026.03
2019-01-12T18:03:30.138Z,99031.09
2019-01-12T18:06:39.048Z,99031.09
2019-01-12T18:12:34.887Z,99023.45
2019-01-12T18:27:44.459Z,99028.06
2019-01-12T18:30:26.727Z,99022.22
2019-01-12T18:33:35.617Z,99022.22
2019-01-12T18:39:30.860Z,99024.56
2019-01-12T18:45:20.927Z,99027.85
2019-01-12T18:47:50.489Z,99027.85
2019-01-12T18:50:22.512Z,99030.25
2019-01-12T18:52:52.766Z,99030.25
2019-01-12T18:55:22.545Z,99023.50
2019-01-12T18:57:52.125Z,99023.50
2019-01-12T19:01:05.037Z,99025.45
2019-01-12T19:04:12.965Z,99014.48
2019-01-12T19:06:54.490Z,99018.26
2019-01-12T19:09:36.003Z,99006.89
2019-01-12T19:12:45.233Z,99006.89
2019-01-12T19:15:34.152Z,99019.59
2019-01-12T19:18:15.679Z,99020.70
2019-01-12T19:20:45.441Z,99020.70
2019-01-12T19:23:15.072Z,99018.98
2019-01-12T19:25:44.961Z,99015.73
2019-01-12T19:28:14.690Z,99005.97
2019-01-12T19:30:44.305Z,99009.11
2019-01-12T19:33:13.855Z,99007.99
2019-01-12T19:35:43.565Z,98871.58
2019-01-12T19:38:32.089Z,99006.54
2019-01-12T19:41:21.079Z,99013.51
2019-01-12T19:44:29.859Z,99003.66
2019-01-12T19:49:49.666Z,98997.23
2019-01-12T19:55:45.556Z,99001.16
2019-01-12T19:58:27.576Z,98997.84
2019-01-12T20:01:10.074Z,98994.37
2019-01-12T20:03:52.254Z,98992.70
2019-01-12T20:06:33.214Z,98996.06
2019-01-12T20:14:51.701Z,98993.19
2019-01-12T20:20:33.632Z,98989.49
2019-01-12T20:26:29.146Z,98982.78
2019-01-12T20:29:21.281Z,98982.78
2019-01-12T20:32:27.600Z,98973.42
2019-01-12T20:35:29.894Z,98973.42
2019-01-12T20:38:16.943Z,98964.52
2019-01-12T20:40:58.560Z,98960.73
2019-01-12T20:44:06.362Z,98960.73
2019-01-12T20:47:13.917Z,98962.47
2019-01-12T20:50:21.776Z,98963.63
2019-01-12T20:53:29.480Z,98963.63
2019-01-12T20:56:37.800Z,98960.73
2019-01-12T20:59:42.486Z,98957.98
2019-01-12T21:02:53.908Z,98948.45
2019-01-12T21:05:54.577Z,98948.45
2019-01-12T21:08:45.776Z,98937.89
2019-01-12T21:12:03.977Z,98937.89
2019-01-12T21:15:11.900Z,98942.10
2019-01-12T21:20:36.997Z,98934.92
2019-01-12T21:23:07.351Z,98937.45
2019-01-12T21:26:16.559Z,98932.35
2019-01-12T21:32:08.909Z,98918.95
2019-01-12T21:34:50.479Z,98916.30
2019-01-12T21:37:59.397Z,98913.20
2019-01-12T21:40:48.062Z,98909.73
2019-01-12T21:43:17.823Z,98909.73
2019-01-12T21:45:47.350Z,98906.33
2019-01-12T21:48:17.026Z,98902.69
2019-01-12T21:50:46.727Z,98902.69
2019-01-12T21:53:16.156Z,98903.17
2019-01-12T21:55:45.676Z,98901.89
2019-01-12T21:58:15.199Z,98901.89
2019-01-12T22:00:44.761Z,98901.94
2019-01-12T22:03:14.584Z,98903.27
2019-01-12T22:06:04.028Z,98905.39
2019-01-12T22:08:52.827Z,98894.66
2019-01-12T22:12:01.575Z,98894.66
2019-01-12T22:14:31.631Z,98886.67
2019-01-12T22:17:21.481Z,98886.67
2019-01-12T22:19:51.831Z,98883.16
2019-01-12T22:22:21.441Z,98880.75
2019-01-12T22:24:51.181Z,98879.66
2019-01-12T22:27:20.638Z,98875.35
2019-01-12T22:29:50.260Z,98875.35
2019-01-12T22:32:19.993Z,98874.64
2019-01-12T22:34:49.433Z,98872.67
2019-01-12T22:37:18.985Z,98871.73
2019-01-12T22:39:48.494Z,98871.73
2019-01-12T22:42:17.953Z,98865.75
2019-01-12T22:44:47.492Z,98869.20
2019-01-12T22:47:16.958Z,98864.47
2019-01-12T22:49:46.402Z,98852.67
2019-01-12T22:52:15.902Z,98865.80
2019-01-12T22:54:45.375Z,98853.95
2019-01-12T22:57:14.896Z,98856.97
2019-01-12T22:59:44.441Z,98852.27
2019-01-12T23:02:54.107Z,98845.45
2019-01-12T23:05:42.757Z,98839.52
2019-01-12T23:08:51.999Z,98839.52
2019-01-12T23:14:36.950Z,98653.69
2019-01-12T23:17:06.740Z,98820.63
2019-01-12T23:19:36.179Z,98822.79
2019-01-12T23:22:05.958Z,98822.79
2019-01-12T23:24:35.444Z,98816.81
2019-01-12T23:28:25.772Z,98810.48
2019-01-12T23:34:15.754Z,98778.72
2019-01-12T23:39:54.914Z,98807.63
2019-01-12T23:42:24.812Z,98803.10
2019-01-12T23:44:54.478Z,98792.20
2019-01-12T23:53:17.681Z,98778.45
2019-01-12T23:55:47.064Z,98778.45
2019-01-12T23:58:16.516Z,98779.78
